Time;durP1;ratioP1;P1;durP2;ratioP2;P2;SDS_P1;SDS_P2;PMS_P1;PMS_P2;Temp;Humidity;BMP_temperature;BMP_pressure;BME280_temperature;BME280_humidity;BME280_pressure;Samples;Min_cycle;Max_cycle;Signal;HPM_P1;HPM_P2
2023/04/21 00:00:33;;;;;;;8.53;7.83;;;;;;;8.18;100.00;102322.53;5071926;28;20453;-46
2023/04/21 00:03:00;;;;;;;10.30;9.20;;;;;;;8.17;100.00;102320.03;5071742;28;20439;-43
2023/04/21 00:05:28;;;;;;;12.93;8.30;;;;;;;8.18;100.00;102338.47;5072524;28;20434;-43
2023/04/21 00:07:56;;;;;;;11.00;9.20;;;;;;;8.18;100.00;102327.03;5071577;28;20492;-45
2023/04/21 00:10:25;;;;;;;10.03;9.03;;;;;;;8.18;100.00;102329.69;5071915;28;20478;-44
2023/04/21 00:12:53;;;;;;;12.17;8.40;;;;;;;8.15;100.00;102312.19;5076035;28;20927;-43
2023/04/21 00:15:20;;;;;;;14.23;9.20;;;;;;;8.14;100.00;102321.16;5078352;28;20592;-43
2023/04/21 00:17:48;;;;;;;10.73;8.93;;;;;;;8.14;100.00;102321.16;5074565;28;20473;-44
2023/04/21 00:20:15;;;;;;;12.80;9.23;;;;;;;8.14;100.00;102322.97;5078890;28;20430;-44
2023/04/21 00:22:43;;;;;;;8.73;7.87;;;;;;;8.14;100.00;102317.66;5078422;28;20529;-44
2023/04/21 00:25:11;;;;;;;9.33;8.33;;;;;;;8.14;100.00;102318.50;5078505;28;20429;-46
2023/04/21 00:27:40;;;;;;;10.93;8.90;;;;;;;8.13;100.00;102313.31;5077775;28;20466;-43
2023/04/21 00:30:10;;;;;;;11.47;8.73;;;;;;;8.12;100.00;102317.78;5078162;28;20561;-44
2023/04/21 00:32:37;;;;;;;12.83;9.60;;;;;;;8.13;100.00;102316.81;5078490;28;20552;-43
2023/04/21 00:35:06;;;;;;;13.50;8.53;;;;;;;8.13;100.00;102308.84;5078685;28;20426;-45
2023/04/21 00:37:33;;;;;;;13.00;9.00;;;;;;;8.15;100.00;102303.41;5078079;28;20473;-44
2023/04/21 00:40:03;;;;;;;11.03;9.00;;;;;;;8.11;100.00;102313.47;5078571;28;20429;-45
2023/04/21 00:42:31;;;;;;;15.63;8.87;;;;;;;8.09;100.00;102301.31;5078424;28;20918;-43
2023/04/21 00:44:59;;;;;;;21.30;9.10;;;;;;;8.09;100.00;102303.97;5078828;28;20843;-44
2023/04/21 00:47:27;;;;;;;10.63;8.33;;;;;;;8.07;100.00;102308.56;5075617;28;20465;-47
2023/04/21 00:49:55;;;;;;;12.13;8.40;;;;;;;8.07;100.00;102304.09;5078714;28;20578;-46
2023/04/21 00:52:23;;;;;;;9.47;8.43;;;;;;;8.05;100.00;102310.53;5078591;28;20437;-45
2023/04/21 00:54:50;;;;;;;10.23;8.60;;;;;;;8.06;100.00;102305.09;5078699;28;20440;-48
2023/04/21 00:57:18;;;;;;;12.50;9.20;;;;;;;8.06;100.00;102294.47;5078005;28;20474;-48
2023/04/21 00:59:46;;;;;;;13.10;8.30;;;;;;;8.05;100.00;102302.56;5078650;28;20526;-45
2023/04/21 01:02:16;;;;;;;12.80;8.60;;;;;;;8.06;100.00;102302.44;5078454;28;20430;-47
2023/04/21 01:04:45;;;;;;;10.70;8.40;;;;;;;8.08;100.00;102296.97;5078729;28;20437;-44
2023/04/21 01:07:12;;;;;;;18.00;8.63;;;;;;;8.06;100.00;102294.47;5078298;28;20760;-45
2023/04/21 01:09:40;;;;;;;9.20;8.43;;;;;;;8.06;100.00;102290.97;5078247;28;20444;-44
2023/04/21 01:12:10;;;;;;;13.43;9.13;;;;;;;8.06;100.00;102290.97;5078081;28;20510;-44
2023/04/21 01:14:39;;;;;;;9.60;8.17;;;;;;;8.04;100.00;102288.44;5078206;28;20867;-43
2023/04/21 01:17:07;;;;;;;9.40;8.60;;;;;;;8.03;100.00;102286.78;5070944;28;20907;-46
2023/04/21 01:19:39;;;;;;;9.20;8.13;;;;;;;8.02;100.00;102279.78;5078237;28;20430;-45
2023/04/21 01:22:10;;;;;;;11.57;8.90;;;;;;;8.00;100.00;102284.41;5078198;28;20422;-44
2023/04/21 01:24:39;;;;;;;13.30;8.60;;;;;;;7.98;100.00;102275.72;5074680;28;20533;-45
2023/04/21 01:27:11;;;;;;;14.23;8.53;;;;;;;7.99;100.00;102273.91;5074545;28;20454;-45
2023/04/21 01:29:40;;;;;;;11.60;7.43;;;;;;;7.98;100.00;102277.53;5075056;28;20640;-43
2023/04/21 01:32:09;;;;;;;8.30;7.50;;;;;;;7.98;100.00;102278.38;5074945;28;20465;-46
2023/04/21 01:34:38;;;;;;;8.27;7.53;;;;;;;7.97;100.00;102278.53;5075047;28;20507;-44
2023/04/21 01:37:09;;;;;;;10.70;8.00;;;;;;;7.97;100.00;102282.03;5074462;28;20512;-45
2023/04/21 01:39:38;;;;;;;8.70;7.80;;;;;;;7.97;100.00;102265.25;5074950;28;20924;-43
2023/04/21 01:42:06;;;;;;;9.73;8.20;;;;;;;7.96;100.00;102275.03;5074652;28;20422;-46
2023/04/21 01:44:34;;;;;;;11.60;7.37;;;;;;;7.98;100.00;102270.41;5075016;28;20437;-45
2023/04/21 01:47:02;;;;;;;8.60;7.70;;;;;;;7.97;100.00;102268.75;5070951;28;20458;-50
2023/04/21 01:49:30;;;;;;;9.57;7.17;;;;;;;7.98;100.00;102232.38;5075133;28;20431;-43
2023/04/21 01:51:57;;;;;;;11.23;8.70;;;;;;;7.98;100.00;102273.06;5074557;28;20469;-43
2023/04/21 01:54:26;;;;;;;18.50;7.87;;;;;;;7.98;100.00;102266.91;5074631;28;20513;-44
2023/04/21 01:56:55;;;;;;;9.00;8.20;;;;;;;7.99;100.00;102269.44;5074316;28;20461;-49
2023/04/21 01:59:22;;;;;;;13.43;7.77;;;;;;;7.98;100.00;102277.53;5074141;28;20480;-48
2023/04/21 02:01:50;;;;;;;11.97;7.40;;;;;;;7.96;100.00;102275.03;5073820;28;20432;-47
2023/04/21 02:04:18;;;;;;;9.67;8.53;;;;;;;7.97;100.00;102266.09;5074016;28;20430;-43
2023/04/21 02:06:46;;;;;;;9.70;7.57;;;;;;;7.99;100.00;102265.94;5073814;28;20534;-42
2023/04/21 02:09:13;;;;;;;9.40;8.50;;;;;;;7.97;100.00;102267.91;5072978;28;21064;-42
2023/04/21 02:11:42;;;;;;;9.80;7.30;;;;;;;7.94;100.00;102258.41;5073361;28;20466;-43
2023/04/21 02:14:10;;;;;;;7.97;7.17;;;;;;;7.93;100.00;102259.38;5073198;28;20981;-45
2023/04/21 02:16:37;;;;;;;8.93;7.80;;;;;;;7.91;100.00;102253.38;5073734;28;20447;-45
2023/04/21 02:19:06;;;;;;;8.90;7.50;;;;;;;7.88;100.00;102248.34;5066594;28;20846;-42
2023/04/21 02:21:34;;;;;;;9.60;8.10;;;;;;;7.88;100.00;102258.13;5073255;28;20495;-44
2023/04/21 02:24:02;;;;;;;12.73;8.50;;;;;;;7.86;100.00;102252.09;5073423;28;20438;-43
2023/04/21 02:26:29;;;;;;;11.30;8.43;;;;;;;7.88;100.00;102252.81;5073281;28;20458;-46
2023/04/21 02:28:59;;;;;;;9.17;7.77;;;;;;;7.86;100.00;102268.88;5073225;28;20462;-45
2023/04/21 02:31:27;;;;;;;8.67;7.93;;;;;;;7.86;100.00;102255.59;5073411;28;20995;-45
2023/04/21 02:33:54;;;;;;;14.83;7.57;;;;;;;7.86;100.00;102252.94;5073742;28;20438;-44
2023/04/21 02:36:22;;;;;;;12.73;8.37;;;;;;;7.85;100.00;102253.97;5073268;28;20456;-48
2023/04/21 02:38:50;;;;;;;9.73;8.77;;;;;;;7.83;100.00;102242.63;5073252;28;20523;-45
2023/04/21 02:41:18;;;;;;;11.47;7.77;;;;;;;7.83;100.00;102250.59;5073247;28;21111;-46
2023/04/21 02:43:46;;;;;;;11.70;7.63;;;;;;;7.82;100.00;102246.28;5073472;28;20509;-43
2023/04/21 02:46:15;;;;;;;8.20;7.47;;;;;;;7.81;100.00;102252.56;5073260;28;20872;-49
2023/04/21 02:48:42;;;;;;;10.67;7.43;;;;;;;7.77;100.00;102245.84;5069094;28;20496;-44
2023/04/21 02:51:14;;;;;;;7.57;6.83;;;;;;;7.76;100.00;102246.84;5073124;28;20466;-44
2023/04/21 02:53:42;;;;;;;10.63;8.17;;;;;;;7.76;100.00;102249.50;5072774;28;20442;-46
2023/04/21 02:56:10;;;;;;;8.87;7.60;;;;;;;7.78;100.00;102252.84;5073213;28;20468;-43
2023/04/21 02:58:38;;;;;;;7.37;6.77;;;;;;;7.78;100.00;102234.25;5072518;28;20490;-44
2023/04/21 03:01:08;;;;;;;9.07;7.93;;;;;;;7.80;100.00;102234.94;5072870;28;20997;-44
2023/04/21 03:03:38;;;;;;;8.23;7.40;;;;;;;7.77;100.00;102221.94;5079187;28;20430;-45
2023/04/21 03:06:06;;;;;;;9.87;8.57;;;;;;;7.78;100.00;102228.94;5079522;28;20541;-44
2023/04/21 03:08:34;;;;;;;9.07;8.23;;;;;;;7.77;100.00;102236.06;5079531;28;20469;-48
2023/04/21 03:11:01;;;;;;;10.37;8.43;;;;;;;7.76;100.00;102225.59;5079163;28;20517;-43
2023/04/21 03:13:29;;;;;;;8.73;7.83;;;;;;;7.74;100.00;102222.22;5078802;28;20522;-43
2023/04/21 03:15:57;;;;;;;9.60;8.60;;;;;;;7.73;100.00;102225.88;5079487;28;20454;-46
2023/04/21 03:18:25;;;;;;;11.97;7.97;;;;;;;7.72;100.00;102225.03;5076384;28;21052;-44
2023/04/21 03:20:59;;;;;;;8.23;7.53;;;;;;;7.71;100.00;102233.13;5079343;28;20435;-46
2023/04/21 03:23:27;;;;;;;10.53;8.40;;;;;;;7.71;100.00;102218.03;5078956;28;20525;-45
2023/04/21 03:25:55;;;;;;;10.23;8.10;;;;;;;7.69;100.00;102216.50;5079509;28;20462;-44
2023/04/21 03:28:22;;;;;;;7.93;7.23;;;;;;;7.67;100.00;102207.84;5078752;28;20930;-44
2023/04/21 03:30:50;;;;;;;10.03;9.03;;;;;;;7.68;100.00;102225.44;5079068;28;20434;-43
2023/04/21 03:33:18;;;;;;;8.67;7.70;;;;;;;7.68;100.00;102218.31;5079083;28;20493;-43
2023/04/21 03:35:45;;;;;;;8.93;7.70;;;;;;;7.65;100.00;102213.28;5079426;28;20525;-43
2023/04/21 03:38:14;;;;;;;8.13;7.37;;;;;;;7.66;100.00;102206.16;5077948;28;20484;-44
2023/04/21 03:40:42;;;;;;;8.70;7.80;;;;;;;7.61;100.00;102211.91;5078250;28;20434;-44
2023/04/21 03:43:10;;;;;;;10.50;8.50;;;;;;;7.60;100.00;102209.38;5078477;28;20942;-43
2023/04/21 03:45:38;;;;;;;9.43;8.07;;;;;;;7.60;100.00;102212.88;5078359;28;20436;-44
2023/04/21 03:48:06;;;;;;;8.53;7.77;;;;;;;7.58;100.00;102221.97;5077272;28;20522;-44
2023/04/21 03:50:33;;;;;;;14.03;8.63;;;;;;;7.59;100.00;102213.00;5078623;28;20435;-43
2023/04/21 03:53:01;;;;;;;9.03;7.50;;;;;;;7.59;100.00;102203.25;5078450;28;20466;-44
2023/04/21 03:55:30;;;;;;;8.70;7.80;;;;;;;7.59;100.00;102210.34;5078961;28;20441;-45
2023/04/21 03:57:58;;;;;;;9.33;7.90;;;;;;;7.59;100.00;102210.34;5078759;28;20476;-44
2023/04/21 04:00:25;;;;;;;9.57;8.57;;;;;;;7.59;100.00;102208.56;5077732;28;20450;-46
2023/04/21 04:02:53;;;;;;;9.53;8.23;;;;;;;7.59;100.00;102221.81;5078146;28;20422;-47
2023/04/21 04:05:21;;;;;;;9.87;8.87;;;;;;;7.62;100.00;102215.38;5077425;28;20434;-46
2023/04/21 04:07:49;;;;;;;8.83;7.97;;;;;;;7.62;100.00;102204.78;5077942;28;20460;-44
2023/04/21 04:10:17;;;;;;;8.23;7.73;;;;;;;7.62;100.00;102208.25;5077552;28;21013;-42
2023/04/21 04:12:46;;;;;;;8.10;7.50;;;;;;;7.63;100.00;102219.72;5077174;28;20788;-46
2023/04/21 04:15:13;;;;;;;10.63;8.40;;;;;;;7.66;100.00;102211.47;5077273;28;20434;-46
2023/04/21 04:17:41;;;;;;;12.27;7.67;;;;;;;7.66;100.00;102196.41;5078228;28;20462;-46
2023/04/21 04:20:09;;;;;;;8.97;7.23;;;;;;;7.68;100.00;102202.38;5077457;28;20862;-46
2023/04/21 04:22:37;;;;;;;8.13;7.43;;;;;;;7.71;100.00;102201.25;5077383;28;20540;-43
2023/04/21 04:25:05;;;;;;;10.70;7.60;;;;;;;7.74;100.00;102199.16;5077823;28;20434;-48
2023/04/21 04:27:33;;;;;;;10.53;8.67;;;;;;;7.79;100.00;102194.25;5078261;28;20935;-43
2023/04/21 04:30:03;;;;;;;8.03;7.23;;;;;;;7.83;100.00;102202.78;5077758;28;21044;-44
2023/04/21 04:32:32;;;;;;;7.50;6.90;;;;;;;7.93;100.00;102195.63;5078148;28;20501;-45
2023/04/21 04:35:00;;;;;;;9.40;8.07;;;;;;;8.05;100.00;102197.13;5079764;28;20471;-43
2023/04/21 04:37:27;;;;;;;7.50;6.80;;;;;;;8.13;100.00;102191.09;5078759;28;20450;-46
2023/04/21 04:39:55;;;;;;;9.77;7.13;;;;;;;8.20;100.00;102194.84;5077707;28;20492;-45
2023/04/21 04:42:24;;;;;;;7.93;7.00;;;;;;;8.32;100.00;102197.22;5077822;28;20450;-45
2023/04/21 04:44:53;;;;;;;7.97;7.07;;;;;;;8.41;100.00;102197.31;5078875;28;20430;-44
2023/04/21 04:47:22;;;;;;;8.30;7.50;;;;;;;8.43;100.00;102188.19;5077812;28;20500;-47
2023/04/21 04:49:49;;;;;;;8.57;6.70;;;;;;;8.51;100.00;102185.63;5075051;28;20533;-45
2023/04/21 04:52:17;;;;;;;8.50;7.70;;;;;;;8.64;100.00;102194.09;5078308;28;20469;-44
2023/04/21 04:54:45;;;;;;;7.80;7.00;;;;;;;8.81;100.00;102195.94;5078527;28;20430;-45
2023/04/21 04:57:12;;;;;;;8.07;7.03;;;;;;;9.25;100.00;102194.25;5078272;28;20454;-45
2023/04/21 04:59:40;;;;;;;8.93;7.37;;;;;;;9.86;100.00;102194.22;5080792;28;20458;-43
2023/04/21 05:02:08;;;;;;;8.13;7.40;;;;;;;10.28;100.00;102190.81;5081507;28;20430;-44
2023/04/21 05:04:38;;;;;;;8.60;7.90;;;;;;;10.55;100.00;102187.94;5081720;28;20483;-43
2023/04/21 05:07:06;;;;;;;10.13;8.07;;;;;;;10.97;100.00;102188.72;5080943;28;20522;-46
2023/04/21 05:09:34;;;;;;;13.20;7.33;;;;;;;11.44;100.00;102188.91;5080718;28;20493;-45
2023/04/21 05:12:02;;;;;;;8.17;7.37;;;;;;;11.80;97.71;102191.28;5080722;28;20608;-43
2023/04/21 05:14:30;;;;;;;7.00;6.33;;;;;;;12.05;91.62;102191.06;5081202;28;20492;-43
2023/04/21 05:16:57;;;;;;;11.80;6.80;;;;;;;12.47;87.32;102184.56;5080996;28;20509;-45
2023/04/21 05:19:25;;;;;;;10.13;6.60;;;;;;;12.84;84.08;102197.28;5078449;28;20808;-48
2023/04/21 05:21:59;;;;;;;8.43;6.33;;;;;;;13.09;81.89;102190.75;5080083;28;20542;-48
2023/04/21 05:24:27;;;;;;;7.40;6.67;;;;;;;13.17;78.85;102199.56;5080613;28;20468;-43
2023/04/21 05:26:55;;;;;;;8.53;6.40;;;;;;;13.46;77.08;102195.34;5080551;28;20461;-45
2023/04/21 05:29:22;;;;;;;7.30;6.60;;;;;;;13.75;78.27;102193.59;5079405;28;20464;-43
2023/04/21 05:31:50;;;;;;;8.50;6.27;;;;;;;14.21;75.85;102201.50;5080505;28;20480;-42
2023/04/21 05:34:18;;;;;;;7.67;6.80;;;;;;;14.71;74.24;102190.81;5079936;28;20496;-43
2023/04/21 05:36:47;;;;;;;7.23;6.60;;;;;;;14.75;68.87;102192.13;5079974;28;20462;-47
2023/04/21 05:39:17;;;;;;;7.47;6.50;;;;;;;14.71;69.07;102198.03;5079825;28;20466;-43
2023/04/21 05:41:45;;;;;;;8.50;7.60;;;;;;;14.87;66.23;102192.47;5080164;28;20424;-47
2023/04/21 05:44:12;;;;;;;7.37;6.83;;;;;;;14.29;65.03;102196.88;5079795;28;20434;-45
2023/04/21 05:46:40;;;;;;;7.20;6.50;;;;;;;14.88;66.29;102196.78;5080352;28;20526;-43
2023/04/21 05:49:08;;;;;;;7.50;6.90;;;;;;;14.80;64.91;102197.75;5079414;28;20549;-44
2023/04/21 05:51:36;;;;;;;7.67;6.77;;;;;;;15.32;63.74;102193.97;5079733;28;20434;-48
2023/04/21 05:54:04;;;;;;;6.40;5.83;;;;;;;15.06;63.78;102188.31;5079577;28;20469;-44
2023/04/21 05:56:33;;;;;;;7.27;6.57;;;;;;;15.23;63.74;102182.47;5079331;28;20454;-45
2023/04/21 05:59:01;;;;;;;6.53;5.63;;;;;;;15.32;64.28;102189.41;5079275;28;20461;-47
2023/04/21 06:01:29;;;;;;;7.03;5.87;;;;;;;15.52;63.95;102189.63;5079514;28;20462;-43
2023/04/21 06:03:57;;;;;;;6.50;6.00;;;;;;;15.54;62.35;102173.28;5080023;28;20434;-47
2023/04/21 06:06:26;;;;;;;7.03;6.43;;;;;;;15.47;61.93;102182.13;5079349;28;20472;-44
2023/04/21 06:08:53;;;;;;;7.20;6.60;;;;;;;15.66;61.64;102177.94;5079525;28;20465;-47
2023/04/21 06:11:21;;;;;;;6.77;6.13;;;;;;;15.46;59.56;102182.31;5078893;28;20460;-43
2023/04/21 06:13:52;;;;;;;6.07;5.60;;;;;;;16.01;58.23;102163.50;5078993;28;20580;-45
2023/04/21 06:16:20;;;;;;;8.17;7.07;;;;;;;15.55;57.66;102191.94;5079153;28;20974;-43
2023/04/21 06:18:47;;;;;;;6.73;5.87;;;;;;;15.52;57.71;102188.78;5076981;28;20469;-47
2023/04/21 06:21:15;;;;;;;6.97;6.37;;;;;;;15.29;58.87;102187.09;5079449;28;20922;-44
2023/04/21 06:23:43;;;;;;;6.10;5.60;;;;;;;15.67;57.60;102181.47;5079641;28;20846;-45
2023/04/21 06:26:12;;;;;;;7.57;5.83;;;;;;;15.49;57.44;102180.09;5079110;28;20460;-46
2023/04/21 06:28:40;;;;;;;11.03;7.13;;;;;;;15.77;58.18;102173.91;5078462;28;20457;-46
2023/04/21 06:31:14;;;;;;;7.50;6.87;;;;;;;15.65;55.85;102186.22;5078889;28;20458;-49
2023/04/21 06:33:42;;;;;;;6.90;5.90;;;;;;;15.72;56.49;102171.78;5078683;28;20509;-48
2023/04/21 06:36:09;;;;;;;7.07;6.47;;;;;;;15.57;55.45;102180.97;5078062;28;20465;-48
2023/04/21 06:38:38;;;;;;;8.20;7.50;;;;;;;15.85;55.93;102171.06;5077790;28;20480;-47
2023/04/21 06:41:06;;;;;;;7.10;6.40;;;;;;;15.58;55.05;102172.72;5077950;28;20486;-45
2023/04/21 06:43:34;;;;;;;7.00;6.30;;;;;;;15.34;55.57;102167.72;5079312;28;20441;-48
2023/04/21 06:46:01;;;;;;;6.60;6.00;;;;;;;15.43;57.14;102163.88;5078679;28;20465;-47
2023/04/21 06:48:31;;;;;;;6.43;5.73;;;;;;;15.62;56.35;102157.03;5076410;28;20457;-43
2023/04/21 06:50:59;;;;;;;6.70;6.07;;;;;;;16.04;56.55;102164.94;5078208;28;20807;-47
2023/04/21 06:53:27;;;;;;;5.83;5.43;;;;;;;16.26;54.51;102168.38;5077751;28;20508;-42
2023/04/21 06:55:55;;;;;;;6.90;6.20;;;;;;;15.99;53.71;102151.28;5078317;28;20452;-46
2023/04/21 06:58:22;;;;;;;6.13;5.53;;;;;;;16.21;55.23;102152.84;5077933;28;20799;-47
2023/04/21 07:00:50;;;;;;;6.20;5.60;;;;;;;16.07;55.19;102158.38;5077691;28;20441;-48
2023/04/21 07:03:18;;;;;;;7.90;6.20;;;;;;;16.31;55.86;102160.53;5077824;28;20426;-47
2023/04/21 07:05:47;;;;;;;6.53;5.93;;;;;;;16.09;56.31;102150.91;5078663;28;20430;-42
2023/04/21 07:08:15;;;;;;;6.40;5.90;;;;;;;16.18;55.68;102137.09;5078005;28;20434;-44
2023/04/21 07:10:42;;;;;;;5.80;5.30;;;;;;;16.12;55.08;102139.75;5079212;28;20429;-50
2023/04/21 07:13:10;;;;;;;6.67;6.07;;;;;;;15.88;54.80;102146.44;5078395;28;20939;-46
2023/04/21 07:15:38;;;;;;;7.53;6.80;;;;;;;15.13;55.26;102154.28;5078172;28;20429;-48
2023/04/21 07:18:06;;;;;;;6.70;5.77;;;;;;;15.48;54.96;102146.16;5074671;28;20430;-43
2023/04/21 07:20:34;;;;;;;7.57;5.20;;;;;;;15.31;54.48;102147.44;5077725;28;20900;-48
2023/04/21 07:23:03;;;;;;;5.63;4.70;;;;;;;15.24;55.50;102159.97;5077508;28;20438;-47
2023/04/21 07:25:30;;;;;;;6.33;5.83;;;;;;;15.04;56.31;102150.06;5078516;28;20453;-48
2023/04/21 07:27:58;;;;;;;7.20;6.70;;;;;;;15.02;56.35;102154.81;5078042;28;20633;-46
2023/04/21 07:30:26;;;;;;;6.57;6.07;;;;;;;15.10;56.78;102157.34;5077695;28;20461;-45
2023/04/21 07:32:54;;;;;;;6.03;5.43;;;;;;;14.87;57.14;102141.44;5078056;28;20436;-43
2023/04/21 07:35:21;;;;;;;6.80;6.17;;;;;;;14.78;57.78;102146.06;5078749;28;20474;-44
2023/04/21 07:37:49;;;;;;;8.77;5.87;;;;;;;14.40;58.24;102140.06;5078181;28;20488;-46
2023/04/21 07:40:18;;;;;;;6.90;6.30;;;;;;;14.04;59.76;102135.59;5077229;28;20457;-45
2023/04/21 07:42:46;;;;;;;9.13;7.23;;;;;;;13.77;60.60;102151.31;5077495;28;20430;-45
2023/04/21 07:45:13;;;;;;;7.13;6.40;;;;;;;13.66;60.77;102130.34;5077979;28;20449;-42
2023/04/21 07:47:41;;;;;;;6.77;6.23;;;;;;;13.59;62.31;102140.09;5078373;28;20466;-45
2023/04/21 07:50:10;;;;;;;9.37;6.70;;;;;;;13.65;62.82;102142.06;5077917;28;20819;-48
2023/04/21 07:52:37;;;;;;;9.37;6.93;;;;;;;13.35;63.21;102142.19;5077505;28;20438;-46
2023/04/21 07:55:06;;;;;;;8.47;6.53;;;;;;;13.19;64.20;102138.66;5077795;28;20879;-42
2023/04/21 07:57:37;;;;;;;9.30;6.77;;;;;;;13.29;65.22;102135.69;5077667;28;20460;-46
2023/04/21 08:00:06;;;;;;;12.10;6.43;;;;;;;13.23;65.19;102142.59;5077253;28;20540;-42
2023/04/21 08:02:34;;;;;;;6.93;6.07;;;;;;;13.38;66.62;102131.94;5077482;28;20506;-44
2023/04/21 08:05:02;;;;;;;7.53;6.73;;;;;;;13.38;65.96;102126.56;5078048;28;20454;-50
2023/04/21 08:07:30;;;;;;;6.97;5.60;;;;;;;13.60;66.99;102135.59;5078128;28;20492;-42
2023/04/21 08:09:59;;;;;;;6.07;5.47;;;;;;;13.65;66.67;102130.53;5072547;28;20843;-43
2023/04/21 08:12:26;;;;;;;6.07;5.47;;;;;;;13.70;65.82;102126.28;5077447;28;20434;-45
2023/04/21 08:14:55;;;;;;;8.07;5.87;;;;;;;13.84;65.44;102136.19;5077633;28;20485;-47
2023/04/21 08:17:23;;;;;;;8.60;6.30;;;;;;;13.69;65.78;102119.25;5078219;28;20450;-42
2023/04/21 08:19:51;;;;;;;8.67;7.77;;;;;;;13.88;65.73;102131.28;5077096;28;20461;-42
2023/04/21 08:22:19;;;;;;;8.53;7.70;;;;;;;13.82;65.98;102129.34;5077510;28;20426;-49
2023/04/21 08:24:46;;;;;;;8.10;7.30;;;;;;;13.99;65.30;102120.09;5077674;28;20502;-42
2023/04/21 08:27:14;;;;;;;8.07;7.13;;;;;;;13.81;66.16;102127.66;5077377;28;20485;-46
2023/04/21 08:29:42;;;;;;;7.63;6.90;;;;;;;13.84;67.19;102129.97;5077029;28;20466;-47
2023/04/21 08:32:11;;;;;;;8.00;7.20;;;;;;;13.58;67.79;102127.75;5076947;28;20430;-46
2023/04/21 08:34:39;;;;;;;14.57;7.87;;;;;;;13.62;67.47;102112.94;5080961;28;20465;-45
2023/04/21 08:37:07;;;;;;;7.67;6.90;;;;;;;13.62;68.74;102118.31;5081437;28;20533;-44
2023/04/21 08:39:35;;;;;;;7.70;7.00;;;;;;;13.59;68.68;102121.34;5077729;28;20465;-43
2023/04/21 08:42:04;;;;;;;9.50;6.73;;;;;;;13.63;68.16;102109.25;5081185;28;20521;-47
2023/04/21 08:44:31;;;;;;;7.07;6.47;;;;;;;13.62;70.10;102126.34;5081447;28;20456;-46
2023/04/21 08:46:59;;;;;;;11.80;7.00;;;;;;;13.41;69.75;102136.94;5081663;28;20454;-45
2023/04/21 08:49:30;;;;;;;8.20;7.50;;;;;;;13.34;69.58;102125.28;5080789;28;20545;-43
2023/04/21 08:52:00;;;;;;;10.03;7.10;;;;;;;13.32;69.68;102132.66;5080753;28;20961;-42
2023/04/21 08:54:27;;;;;;;7.07;6.57;;;;;;;13.58;69.91;102125.06;5080638;28;20825;-47
2023/04/21 08:56:56;;;;;;;7.70;7.00;;;;;;;13.58;68.73;102132.25;5081289;28;20450;-47
2023/04/21 08:59:41;;;;;;;7.20;6.70;;;;;;;13.69;69.76;102124.59;5080696;28;20807;-47
2023/04/21 09:02:10;;;;;;;8.67;6.73;;;;;;;13.84;70.96;102129.97;5080882;28;20422;-45
2023/04/21 09:04:40;;;;;;;7.80;7.00;;;;;;;13.77;66.65;102132.56;5080393;28;20464;-48
2023/04/21 09:07:09;;;;;;;7.77;7.10;;;;;;;13.84;67.38;102120.09;5081400;28;20453;-46
2023/04/21 09:09:52;;;;;;;9.07;6.80;;;;;;;13.84;67.65;102132.66;5081029;28;20458;-44
2023/04/21 09:12:20;;;;;;;7.40;6.70;;;;;;;13.87;67.04;102116.19;5080952;28;20485;-43
2023/04/21 09:14:48;;;;;;;11.20;7.13;;;;;;;14.08;66.71;102126.19;5080685;28;20474;-43
2023/04/21 09:17:17;;;;;;;7.50;6.70;;;;;;;13.92;66.30;102135.25;5080773;28;20469;-44
2023/04/21 09:19:46;;;;;;;8.40;6.70;;;;;;;13.91;65.83;102132.75;5080087;28;20458;-46
2023/04/21 09:22:15;;;;;;;8.00;7.20;;;;;;;14.07;65.11;102125.34;5081005;28;20430;-45
2023/04/21 09:24:46;;;;;;;7.90;7.30;;;;;;;14.01;65.22;102123.41;5080868;28;20430;-50
2023/04/21 09:27:16;;;;;;;8.43;7.30;;;;;;;14.27;64.36;102129.16;5079833;28;20461;-43
2023/04/21 09:29:48;;;;;;;8.47;7.87;;;;;;;14.47;62.81;102118.66;5080336;28;20457;-43
2023/04/21 09:32:19;;;;;;;8.97;7.97;;;;;;;14.53;62.45;102123.28;5080138;28;20438;-45
2023/04/21 09:34:48;;;;;;;8.27;7.47;;;;;;;14.74;61.79;102117.13;5080343;28;20476;-45
2023/04/21 09:37:15;;;;;;;7.90;7.30;;;;;;;14.82;61.39;102131.25;5080591;28;20453;-45
2023/04/21 09:39:46;;;;;;;8.13;7.50;;;;;;;14.86;60.23;102132.53;5079851;28;20461;-45
2023/04/21 09:42:33;;;;;;;8.20;7.30;;;;;;;14.73;60.40;102118.13;5080498;28;20438;-45
2023/04/21 09:45:08;;;;;;;8.07;7.37;;;;;;;14.51;60.62;102119.97;5079186;28;20438;-46
2023/04/21 09:47:59;;;;;;;9.53;8.13;;;;;;;14.70;59.83;102137.28;5080094;28;20798;-50
2023/04/21 09:50:29;;;;;;;7.60;6.90;;;;;;;14.60;60.20;102108.09;5075627;28;20454;-43
2023/04/21 09:53:21;;;;;;;12.07;8.10;;;;;;;14.95;61.11;102112.59;5080160;28;20466;-48
2023/04/21 09:55:51;;;;;;;8.10;7.40;;;;;;;15.12;58.77;102104.25;5080104;28;20834;-48
2023/04/21 09:58:22;;;;;;;7.50;6.77;;;;;;;14.86;58.33;102096.78;5080247;28;20438;-42
2023/04/21 10:00:51;;;;;;;7.63;7.03;;;;;;;14.96;57.89;102108.06;5079212;28;20557;-43
2023/04/21 10:03:23;;;;;;;9.30;7.90;;;;;;;15.04;57.79;102104.38;5080158;28;20434;-45
2023/04/21 10:05:53;;;;;;;8.00;7.20;;;;;;;15.12;58.43;102099.72;5079700;28;20435;-43
2023/04/21 10:08:22;;;;;;;12.97;7.53;;;;;;;15.12;63.17;102102.41;5080736;28;20434;-48
2023/04/21 10:10:51;;;;;;;8.67;8.00;;;;;;;15.13;62.02;102093.31;5079307;28;20824;-44
2023/04/21 10:13:19;;;;;;;11.17;8.27;;;;;;;15.19;64.55;102110.53;5079557;28;20422;-47
2023/04/21 10:15:47;;;;;;;8.37;7.60;;;;;;;15.17;63.53;102115.28;5079665;28;20945;-49
2023/04/21 10:18:19;;;;;;;11.23;7.80;;;;;;;14.98;64.05;102108.69;5079451;28;20458;-47
2023/04/21 10:20:56;;;;;;;9.50;8.60;;;;;;;15.00;66.51;102090.50;5076340;28;20466;-47
2023/04/21 10:23:31;;;;;;;7.87;7.27;;;;;;;15.10;64.89;102087.50;5079180;28;20430;-46
2023/04/21 10:26:07;;;;;;;10.10;9.20;;;;;;;15.14;64.11;102083.41;5078862;28;20842;-46
2023/04/21 10:28:46;;;;;;;8.67;7.97;;;;;;;15.27;63.87;102088.88;5079429;28;20962;-45
2023/04/21 10:31:33;;;;;;;8.57;7.97;;;;;;;15.38;62.82;102074.94;5079946;28;20462;-46
2023/04/21 10:34:20;;;;;;;9.50;7.73;;;;;;;15.56;62.39;102077.16;5077742;28;20512;-45
2023/04/21 10:37:16;;;;;;;8.97;8.00;;;;;;;15.47;63.01;102065.72;5078924;28;20540;-45
2023/04/21 10:39:53;;;;;;;10.30;8.37;;;;;;;15.38;60.76;102070.34;5078282;28;20454;-47
2023/04/21 10:42:29;;;;;;;7.77;7.07;;;;;;;15.32;61.35;102083.75;5079113;28;20824;-44
2023/04/21 10:45:10;;;;;;;8.13;7.40;;;;;;;15.58;59.55;102059.78;5079125;28;20438;-43
2023/04/21 10:47:41;;;;;;;9.60;8.23;;;;;;;15.68;60.36;102046.00;5078292;28;20461;-43
2023/04/21 10:50:18;;;;;;;8.57;7.70;;;;;;;15.73;60.49;102041.66;5075380;28;20457;-46
2023/04/21 10:53:07;;;;;;;8.97;8.07;;;;;;;15.67;60.65;102042.47;5078615;28;20433;-44
2023/04/21 10:55:35;;;;;;;8.77;7.97;;;;;;;15.60;61.19;102036.22;5078276;28;20480;-46
2023/04/21 10:58:04;;;;;;;8.13;7.47;;;;;;;16.03;61.47;102037.69;5078730;28;20462;-45
2023/04/21 11:00:32;;;;;;;7.90;7.10;;;;;;;15.87;60.61;102048.78;5068492;28;20455;-44
2023/04/21 11:03:02;;;;;;;7.73;7.03;;;;;;;16.10;59.24;102045.75;5061796;28;20432;-49
2023/04/21 11:05:37;;;;;;;11.50;8.47;;;;;;;15.89;59.64;102045.88;5056664;28;20423;-49
2023/04/21 11:08:10;;;;;;;9.23;7.90;;;;;;;15.84;61.54;102027.66;5057280;28;20435;-50
2023/04/21 11:10:47;;;;;;;8.53;7.73;;;;;;;15.80;62.45;102034.44;5056648;28;20490;-47
2023/04/21 11:13:15;;;;;;;9.27;8.33;;;;;;;15.92;61.98;102030.16;5058150;28;20487;-47
2023/04/21 11:15:55;;;;;;;9.80;8.60;;;;;;;15.95;62.05;102021.69;5057995;28;20545;-48
2023/04/21 11:18:32;;;;;;;8.23;7.53;;;;;;;15.92;62.01;102023.94;5058601;28;20423;-44
2023/04/21 11:21:11;;;;;;;15.33;7.73;;;;;;;15.88;61.08;102017.31;5057711;28;20469;-44
2023/04/21 11:23:48;;;;;;;8.40;7.60;;;;;;;15.99;60.71;102017.56;5058410;28;20897;-47
2023/04/21 11:26:16;;;;;;;11.60;7.77;;;;;;;16.05;60.01;102034.78;5058540;28;20447;-46
2023/04/21 11:28:48;;;;;;;11.63;7.87;;;;;;;15.99;60.10;102024.81;5058833;28;20510;-46
2023/04/21 11:31:16;;;;;;;10.60;7.70;;;;;;;16.03;60.63;102020.69;5057800;28;20463;-46